Arso Airport


Codes: WAJA/ARJ
Name: Arso Airport
City: Arso-Papua Island
Country: Indonesia
Elevation: 208 ft.

Photos at Arso Airport


   Photos courtesy of SpottingLog. You can add your own sightings and photos by signing up for a free trial today.



No photos found.

Weather at Arso Airport


Time (UTC)DescriptionTempratureWindCloud coverageVisibilityPressureHumidity
26-Jun-2024 00:00Overcast Clouds26°C0 mph, SE97%10000m1010hPa88%
26-Jun-2024 03:00Broken Clouds30°C4 mph, NE82%10000m1009hPa67%
26-Jun-2024 06:00Light Rain28°C4 mph, N87%8990m1006hPa85%
26-Jun-2024 09:00Light Rain25°C2 mph, W65%10000m1008hPa96%
26-Jun-2024 12:00Light Rain24°C0 mph, W59%10000m1010hPa99%
26-Jun-2024 15:00Overcast Clouds23°C0 mph, S100%10000m1009hPa100%
26-Jun-2024 18:00Overcast Clouds23°C0 mph, S100%10000m1009hPa100%
26-Jun-2024 21:00Light Rain23°C2 mph, S99%10000m1011hPa100%
27-Jun-2024 00:00Light Rain29°C2 mph, SW100%10000m1011hPa78%
27-Jun-2024 03:00Light Rain30°C2 mph, SE99%10000m1009hPa78%
27-Jun-2024 06:00Moderate Rain29°C2 mph, NE100%10000m1007hPa82%
27-Jun-2024 09:00Light Rain25°C0 mph, N100%10000m1009hPa98%
27-Jun-2024 12:00Light Rain24°C0 mph, NW100%10000m1011hPa100%
27-Jun-2024 15:00Overcast Clouds23°C0 mph, E100%10000m1010hPa100%
27-Jun-2024 18:00Light Rain23°C0 mph, E100%10000m1010hPa100%
27-Jun-2024 21:00Light Rain23°C0 mph, SE99%6953m1011hPa100%
28-Jun-2024 00:00Light Rain27°C2 mph, E99%10000m1012hPa84%
28-Jun-2024 03:00Light Rain25°C0 mph, SW100%10000m1010hPa97%
28-Jun-2024 06:00Light Rain28°C0 mph, NW99%10000m1008hPa79%
28-Jun-2024 09:00Broken Clouds25°C0 mph, W57%10000m1010hPa92%
28-Jun-2024 12:00Broken Clouds23°C2 mph, SE61%10000m1011hPa99%
28-Jun-2024 15:00Overcast Clouds23°C0 mph, S100%10000m1011hPa100%
28-Jun-2024 18:00Light Rain23°C2 mph, SE100%10000m1010hPa100%
28-Jun-2024 21:00Overcast Clouds23°C0 mph, SE92%10000m1011hPa100%
29-Jun-2024 00:00Broken Clouds29°C2 mph, S75%10000m1011hPa70%
29-Jun-2024 03:00Light Rain32°C2 mph, E68%10000m1008hPa62%
29-Jun-2024 06:00Light Rain28°C2 mph, NE74%9379m1007hPa93%
29-Jun-2024 09:00Light Rain25°C0 mph, NW72%10000m1009hPa99%
29-Jun-2024 12:00Light Rain23°C0 mph, E77%10000m1011hPa100%
29-Jun-2024 15:00Light Rain23°C0 mph, SE87%10000m1010hPa100%
29-Jun-2024 18:00Light Rain23°C0 mph, S93%10000m1009hPa100%
29-Jun-2024 21:00Overcast Clouds22°C0 mph, SE100%10000m1010hPa100%
30-Jun-2024 00:00Light Rain25°C2 mph, NE100%10000m1012hPa95%
30-Jun-2024 03:00Light Rain26°C4 mph, NE95%10000m1010hPa90%
30-Jun-2024 06:00Moderate Rain24°C2 mph, NE95%10000m1009hPa99%
30-Jun-2024 09:00Light Rain24°C0 mph, NW100%10000m1010hPa99%
30-Jun-2024 12:00Light Rain23°C0 mph, S100%10000m1012hPa100%
30-Jun-2024 15:00Light Rain23°C2 mph, SW100%10000m1011hPa100%
30-Jun-2024 18:00Overcast Clouds23°C2 mph, S100%10000m1010hPa99%
30-Jun-2024 21:00Overcast Clouds22°C2 mph, SW100%10000m1011hPa100%